Quamba, Minnesota
Current Conditions -  °F | °C
As of 9:00 PM on Wednesday 26 Nov 2014 (Local Time) from KJMR Reporting Station
Scattered Clouds Scattered Clouds  
Wind Chill:   Ceiling: Unl
Heat Index: 12°   Visibility: 10mi
Dew Point: -2°   Wind: 8mph
Humidity: 53%   Direction: 350°N
Pressure: 30.37"   Gusts: NA
Location:  45.9652°N, 93.2874°W
Report Text: KJMR 270300Z AUTO 35007KT 10SM SCT095 M11/M19 A3037 RMK AO2
Loading
Personal Weather Stations






























Interactive Weather Map New forecast layout! Learn more

10-Day Weather Forecast

Advertisements
Track Severe Weather on mobile